sensor_id;sensor_type;location;lat;lon;timestamp;P1;durP1;ratioP1;P2;durP2;ratioP2
45388;SDS011;31127;52.078;4.370;2022-09-03T00:04:58;7.97;;;2.30;;
45388;SDS011;31127;52.078;4.370;2022-09-03T00:10:09;7.00;;;2.13;;
45388;SDS011;31127;52.078;4.370;2022-09-03T00:15:17;3.67;;;2.13;;
45388;SDS011;31127;52.078;4.370;2022-09-03T00:30:51;3.70;;;1.60;;
45388;SDS011;31127;52.078;4.370;2022-09-03T00:41:05;5.25;;;1.85;;
45388;SDS011;31127;52.078;4.370;2022-09-03T00:56:36;1.67;;;1.45;;
45388;SDS011;31127;52.078;4.370;2022-09-03T01:07:22;5.47;;;1.90;;
45388;SDS011;31127;52.078;4.370;2022-09-03T01:12:41;7.15;;;1.95;;
45388;SDS011;31127;52.078;4.370;2022-09-03T01:23:12;4.78;;;1.73;;
45388;SDS011;31127;52.078;4.370;2022-09-03T01:33:40;4.90;;;1.77;;
45388;SDS011;31127;52.078;4.370;2022-09-03T01:43:55;6.53;;;2.30;;
45388;SDS011;31127;52.078;4.370;2022-09-03T01:49:18;4.28;;;2.10;;
45388;SDS011;31127;52.078;4.370;2022-09-03T01:54:37;4.57;;;2.33;;
45388;SDS011;31127;52.078;4.370;2022-09-03T02:00:04;5.85;;;1.80;;
45388;SDS011;31127;52.078;4.370;2022-09-03T02:05:15;3.15;;;1.92;;
45388;SDS011;31127;52.078;4.370;2022-09-03T02:10:19;6.72;;;2.10;;
45388;SDS011;31127;52.078;4.370;2022-09-03T02:15:44;3.00;;;2.20;;
45388;SDS011;31127;52.078;4.370;2022-09-03T02:20:46;2.97;;;2.00;;
45388;SDS011;31127;52.078;4.370;2022-09-03T02:30:51;5.03;;;1.60;;
45388;SDS011;31127;52.078;4.370;2022-09-03T02:35:53;3.15;;;2.00;;
45388;SDS011;31127;52.078;4.370;2022-09-03T02:40:55;3.95;;;2.10;;
45388;SDS011;31127;52.078;4.370;2022-09-03T02:46:01;3.35;;;1.80;;
45388;SDS011;31127;52.078;4.370;2022-09-03T02:51:03;4.00;;;2.17;;
45388;SDS011;31127;52.078;4.370;2022-09-03T02:56:05;6.43;;;1.85;;
45388;SDS011;31127;52.078;4.370;2022-09-03T03:01:07;7.15;;;2.30;;
45388;SDS011;31127;52.078;4.370;2022-09-03T03:06:09;3.47;;;2.03;;
45388;SDS011;31127;52.078;4.370;2022-09-03T03:11:12;3.53;;;2.15;;
45388;SDS011;31127;52.078;4.370;2022-09-03T03:16:18;4.00;;;1.90;;
45388;SDS011;31127;52.078;4.370;2022-09-03T03:21:27;6.68;;;2.05;;
45388;SDS011;31127;52.078;4.370;2022-09-03T03:26:29;4.88;;;2.28;;
45388;SDS011;31127;52.078;4.370;2022-09-03T03:31:32;4.20;;;2.03;;
45388;SDS011;31127;52.078;4.370;2022-09-03T03:36:33;5.82;;;2.40;;
45388;SDS011;31127;52.078;4.370;2022-09-03T03:41:35;6.70;;;2.28;;
45388;SDS011;31127;52.078;4.370;2022-09-03T03:51:40;5.53;;;1.98;;
45388;SDS011;31127;52.078;4.370;2022-09-03T03:56:42;6.20;;;2.35;;
45388;SDS011;31127;52.078;4.370;2022-09-03T04:01:44;6.43;;;2.35;;
45388;SDS011;31127;52.078;4.370;2022-09-03T04:06:46;7.35;;;2.25;;
45388;SDS011;31127;52.078;4.370;2022-09-03T04:11:49;6.55;;;2.60;;
45388;SDS011;31127;52.078;4.370;2022-09-03T04:17:06;3.95;;;1.85;;
45388;SDS011;31127;52.078;4.370;2022-09-03T04:22:16;3.97;;;2.25;;
45388;SDS011;31127;52.078;4.370;2022-09-03T04:27:20;7.20;;;2.10;;
45388;SDS011;31127;52.078;4.370;2022-09-03T04:32:22;3.10;;;2.47;;
45388;SDS011;31127;52.078;4.370;2022-09-03T04:37:50;5.32;;;2.22;;
45388;SDS011;31127;52.078;4.370;2022-09-03T04:42:55;6.00;;;2.40;;
45388;SDS011;31127;52.078;4.370;2022-09-03T04:53:02;3.35;;;2.03;;
45388;SDS011;31127;52.078;4.370;2022-09-03T04:58:12;7.28;;;2.10;;
45388;SDS011;31127;52.078;4.370;2022-09-03T05:03:14;7.57;;;2.20;;
45388;SDS011;31127;52.078;4.370;2022-09-03T05:08:16;5.88;;;2.42;;
45388;SDS011;31127;52.078;4.370;2022-09-03T05:13:18;5.60;;;2.90;;
45388;SDS011;31127;52.078;4.370;2022-09-03T05:18:20;6.63;;;2.47;;
45388;SDS011;31127;52.078;4.370;2022-09-03T05:23:22;4.68;;;2.28;;
45388;SDS011;31127;52.078;4.370;2022-09-03T05:28:24;8.65;;;2.33;;
45388;SDS011;31127;52.078;4.370;2022-09-03T05:33:28;6.60;;;2.30;;
45388;SDS011;31127;52.078;4.370;2022-09-03T05:38:30;5.00;;;2.65;;
45388;SDS011;31127;52.078;4.370;2022-09-03T05:43:32;5.10;;;2.97;;
45388;SDS011;31127;52.078;4.370;2022-09-03T05:48:34;5.53;;;2.83;;
45388;SDS011;31127;52.078;4.370;2022-09-03T05:53:37;4.82;;;3.20;;
45388;SDS011;31127;52.078;4.370;2022-09-03T05:58:40;7.50;;;2.63;;
45388;SDS011;31127;52.078;4.370;2022-09-03T06:03:44;6.22;;;2.20;;
45388;SDS011;31127;52.078;4.370;2022-09-03T06:08:47;10.93;;;2.30;;
45388;SDS011;31127;52.078;4.370;2022-09-03T06:13:49;6.95;;;2.38;;
45388;SDS011;31127;52.078;4.370;2022-09-03T06:18:58;4.63;;;2.53;;
45388;SDS011;31127;52.078;4.370;2022-09-03T06:24:00;6.22;;;3.40;;
45388;SDS011;31127;52.078;4.370;2022-09-03T06:29:09;8.50;;;2.78;;
45388;SDS011;31127;52.078;4.370;2022-09-03T06:34:11;3.78;;;2.90;;
45388;SDS011;31127;52.078;4.370;2022-09-03T06:39:13;4.53;;;2.60;;
45388;SDS011;31127;52.078;4.370;2022-09-03T06:44:15;5.85;;;2.83;;
45388;SDS011;31127;52.078;4.370;2022-09-03T06:49:32;11.48;;;3.53;;
45388;SDS011;31127;52.078;4.370;2022-09-03T06:54:34;8.60;;;2.95;;
45388;SDS011;31127;52.078;4.370;2022-09-03T06:59:43;6.32;;;2.60;;
45388;SDS011;31127;52.078;4.370;2022-09-03T07:04:45;5.47;;;2.83;;
45388;SDS011;31127;52.078;4.370;2022-09-03T07:09:47;10.77;;;3.08;;
45388;SDS011;31127;52.078;4.370;2022-09-03T07:14:49;8.65;;;2.95;;
45388;SDS011;31127;52.078;4.370;2022-09-03T07:19:51;6.03;;;2.58;;
45388;SDS011;31127;52.078;4.370;2022-09-03T07:24:53;4.05;;;2.47;;
45388;SDS011;31127;52.078;4.370;2022-09-03T07:30:02;4.65;;;2.65;;
45388;SDS011;31127;52.078;4.370;2022-09-03T07:35:04;4.97;;;2.50;;
45388;SDS011;31127;52.078;4.370;2022-09-03T07:40:06;10.15;;;2.65;;
45388;SDS011;31127;52.078;4.370;2022-09-03T07:45:08;4.17;;;2.87;;
45388;SDS011;31127;52.078;4.370;2022-09-03T07:50:13;8.40;;;3.17;;
45388;SDS011;31127;52.078;4.370;2022-09-03T08:00:25;4.13;;;2.78;;
45388;SDS011;31127;52.078;4.370;2022-09-03T08:05:27;5.88;;;2.90;;
45388;SDS011;31127;52.078;4.370;2022-09-03T08:10:29;4.93;;;3.20;;
45388;SDS011;31127;52.078;4.370;2022-09-03T08:15:31;7.78;;;2.58;;
45388;SDS011;31127;52.078;4.370;2022-09-03T08:25:36;7.28;;;3.13;;
45388;SDS011;31127;52.078;4.370;2022-09-03T08:30:38;7.33;;;3.40;;
45388;SDS011;31127;52.078;4.370;2022-09-03T08:35:40;5.37;;;2.70;;
45388;SDS011;31127;52.078;4.370;2022-09-03T08:40:43;3.25;;;2.58;;
45388;SDS011;31127;52.078;4.370;2022-09-03T08:45:46;7.88;;;3.22;;
45388;SDS011;31127;52.078;4.370;2022-09-03T08:50:49;6.93;;;2.78;;
45388;SDS011;31127;52.078;4.370;2022-09-03T08:55:57;5.82;;;2.33;;
45388;SDS011;31127;52.078;4.370;2022-09-03T09:16:29;4.68;;;2.55;;
45388;SDS011;31127;52.078;4.370;2022-09-03T09:21:33;6.60;;;2.90;;
45388;SDS011;31127;52.078;4.370;2022-09-03T09:26:40;7.20;;;2.85;;
45388;SDS011;31127;52.078;4.370;2022-09-03T09:31:41;10.10;;;3.67;;
45388;SDS011;31127;52.078;4.370;2022-09-03T09:36:47;5.65;;;2.75;;
45388;SDS011;31127;52.078;4.370;2022-09-03T09:41:56;4.32;;;2.75;;
45388;SDS011;31127;52.078;4.370;2022-09-03T09:47:02;6.32;;;2.42;;
45388;SDS011;31127;52.078;4.370;2022-09-03T09:52:08;4.63;;;2.08;;
45388;SDS011;31127;52.078;4.370;2022-09-03T09:57:14;5.78;;;2.40;;
45388;SDS011;31127;52.078;4.370;2022-09-03T10:02:25;11.65;;;7.05;;
45388;SDS011;31127;52.078;4.370;2022-09-03T10:07:37;11.75;;;2.20;;
45388;SDS011;31127;52.078;4.370;2022-09-03T10:12:44;6.10;;;2.80;;
45388;SDS011;31127;52.078;4.370;2022-09-03T10:23:22;6.13;;;2.47;;
45388;SDS011;31127;52.078;4.370;2022-09-03T10:28:26;4.07;;;2.10;;
45388;SDS011;31127;52.078;4.370;2022-09-03T10:33:32;4.57;;;2.60;;
45388;SDS011;31127;52.078;4.370;2022-09-03T10:38:42;4.53;;;2.40;;
45388;SDS011;31127;52.078;4.370;2022-09-03T10:49:21;6.32;;;2.90;;
45388;SDS011;31127;52.078;4.370;2022-09-03T10:54:29;4.53;;;3.55;;
45388;SDS011;31127;52.078;4.370;2022-09-03T10:59:48;6.37;;;3.77;;
45388;SDS011;31127;52.078;4.370;2022-09-03T11:04:56;5.35;;;3.20;;
45388;SDS011;31127;52.078;4.370;2022-09-03T11:10:12;3.25;;;3.05;;
45388;SDS011;31127;52.078;4.370;2022-09-03T11:15:25;3.42;;;3.13;;
45388;SDS011;31127;52.078;4.370;2022-09-03T11:20:29;4.32;;;3.25;;
45388;SDS011;31127;52.078;4.370;2022-09-03T11:25:42;8.93;;;8.02;;
45388;SDS011;31127;52.078;4.370;2022-09-03T11:30:50;3.03;;;2.78;;
45388;SDS011;31127;52.078;4.370;2022-09-03T11:35:56;4.70;;;3.00;;
45388;SDS011;31127;52.078;4.370;2022-09-03T11:51:32;4.10;;;3.17;;
45388;SDS011;31127;52.078;4.370;2022-09-03T11:56:36;5.90;;;3.58;;
45388;SDS011;31127;52.078;4.370;2022-09-03T12:01:39;5.85;;;3.67;;
45388;SDS011;31127;52.078;4.370;2022-09-03T12:12:13;5.03;;;4.30;;
45388;SDS011;31127;52.078;4.370;2022-09-03T12:22:27;6.57;;;3.53;;
45388;SDS011;31127;52.078;4.370;2022-09-03T12:27:32;8.25;;;6.90;;
45388;SDS011;31127;52.078;4.370;2022-09-03T12:32:34;11.68;;;10.55;;
45388;SDS011;31127;52.078;4.370;2022-09-03T12:37:42;4.80;;;4.30;;
45388;SDS011;31127;52.078;4.370;2022-09-03T12:42:46;9.93;;;3.92;;
45388;SDS011;31127;52.078;4.370;2022-09-03T12:47:48;5.85;;;4.40;;
45388;SDS011;31127;52.078;4.370;2022-09-03T12:52:54;4.25;;;3.78;;
45388;SDS011;31127;52.078;4.370;2022-09-03T13:03:28;4.47;;;3.65;;
45388;SDS011;31127;52.078;4.370;2022-09-03T13:08:32;6.88;;;3.30;;
45388;SDS011;31127;52.078;4.370;2022-09-03T13:13:35;4.05;;;3.65;;
45388;SDS011;31127;52.078;4.370;2022-09-03T13:18:43;8.75;;;4.03;;
45388;SDS011;31127;52.078;4.370;2022-09-03T13:29:14;7.25;;;2.90;;
45388;SDS011;31127;52.078;4.370;2022-09-03T13:34:21;7.68;;;3.05;;
45388;SDS011;31127;52.078;4.370;2022-09-03T13:39:32;3.67;;;3.05;;
45388;SDS011;31127;52.078;4.370;2022-09-03T13:50:07;3.35;;;2.70;;
45388;SDS011;31127;52.078;4.370;2022-09-03T14:06:22;6.25;;;4.50;;
45388;SDS011;31127;52.078;4.370;2022-09-03T14:21:53;6.32;;;3.90;;
45388;SDS011;31127;52.078;4.370;2022-09-03T14:26:57;10.83;;;4.60;;
45388;SDS011;31127;52.078;4.370;2022-09-03T14:47:46;6.35;;;3.95;;
45388;SDS011;31127;52.078;4.370;2022-09-03T15:08:25;9.07;;;4.53;;
45388;SDS011;31127;52.078;4.370;2022-09-03T15:13:36;5.35;;;3.05;;
45388;SDS011;31127;52.078;4.370;2022-09-03T15:29:10;3.50;;;2.90;;
45388;SDS011;31127;52.078;4.370;2022-09-03T15:39:36;3.40;;;3.10;;
45388;SDS011;31127;52.078;4.370;2022-09-03T15:44:50;3.00;;;2.65;;
45388;SDS011;31127;52.078;4.370;2022-09-03T15:49:58;5.60;;;2.90;;
45388;SDS011;31127;52.078;4.370;2022-09-03T15:55:09;6.13;;;2.95;;
45388;SDS011;31127;52.078;4.370;2022-09-03T16:00:12;3.42;;;2.70;;
45388;SDS011;31127;52.078;4.370;2022-09-03T16:05:20;4.60;;;2.75;;
45388;SDS011;31127;52.078;4.370;2022-09-03T16:10:31;3.72;;;2.70;;
45388;SDS011;31127;52.078;4.370;2022-09-03T16:15:58;4.60;;;2.78;;
45388;SDS011;31127;52.078;4.370;2022-09-03T16:41:45;10.18;;;9.23;;
45388;SDS011;31127;52.078;4.370;2022-09-03T16:47:11;6.82;;;6.13;;
45388;SDS011;31127;52.078;4.370;2022-09-03T16:52:22;4.60;;;3.97;;
45388;SDS011;31127;52.078;4.370;2022-09-03T17:18:32;6.63;;;1.92;;
45388;SDS011;31127;52.078;4.370;2022-09-03T17:50:17;3.78;;;1.90;;
45388;SDS011;31127;52.078;4.370;2022-09-03T17:55:23;3.78;;;2.22;;
45388;SDS011;31127;52.078;4.370;2022-09-03T18:00:34;4.47;;;1.70;;
45388;SDS011;31127;52.078;4.370;2022-09-03T18:05:48;6.57;;;2.22;;
45388;SDS011;31127;52.078;4.370;2022-09-03T18:11:13;2.92;;;1.92;;
45388;SDS011;31127;52.078;4.370;2022-09-03T18:16:26;7.00;;;2.47;;
45388;SDS011;31127;52.078;4.370;2022-09-03T18:21:29;6.47;;;2.30;;
45388;SDS011;31127;52.078;4.370;2022-09-03T18:26:59;3.70;;;2.45;;
45388;SDS011;31127;52.078;4.370;2022-09-03T18:32:21;6.72;;;2.13;;
45388;SDS011;31127;52.078;4.370;2022-09-03T18:37:41;5.07;;;2.20;;
45388;SDS011;31127;52.078;4.370;2022-09-03T18:43:19;4.90;;;2.10;;
45388;SDS011;31127;52.078;4.370;2022-09-03T18:49:09;10.68;;;2.97;;
45388;SDS011;31127;52.078;4.370;2022-09-03T19:00:16;7.05;;;2.78;;
45388;SDS011;31127;52.078;4.370;2022-09-03T19:22:42;6.07;;;2.88;;
45388;SDS011;31127;52.078;4.370;2022-09-03T19:27:55;6.10;;;2.90;;
45388;SDS011;31127;52.078;4.370;2022-09-03T19:38:44;8.93;;;3.00;;
45388;SDS011;31127;52.078;4.370;2022-09-03T19:44:18;6.85;;;2.60;;
45388;SDS011;31127;52.078;4.370;2022-09-03T19:55:09;10.00;;;3.22;;
45388;SDS011;31127;52.078;4.370;2022-09-03T20:00:38;4.28;;;3.25;;
45388;SDS011;31127;52.078;4.370;2022-09-03T20:05:59;8.45;;;3.20;;
45388;SDS011;31127;52.078;4.370;2022-09-03T20:11:21;10.80;;;3.63;;
45388;SDS011;31127;52.078;4.370;2022-09-03T20:16:34;7.53;;;2.92;;
45388;SDS011;31127;52.078;4.370;2022-09-03T20:21:38;4.97;;;3.05;;
45388;SDS011;31127;52.078;4.370;2022-09-03T20:37:18;4.18;;;3.10;;
45388;SDS011;31127;52.078;4.370;2022-09-03T20:47:50;5.18;;;3.67;;
45388;SDS011;31127;52.078;4.370;2022-09-03T20:53:13;6.32;;;3.45;;
45388;SDS011;31127;52.078;4.370;2022-09-03T20:58:19;8.63;;;3.70;;
45388;SDS011;31127;52.078;4.370;2022-09-03T21:03:26;5.78;;;3.78;;
45388;SDS011;31127;52.078;4.370;2022-09-03T21:08:41;6.82;;;4.35;;
45388;SDS011;31127;52.078;4.370;2022-09-03T21:13:52;6.50;;;3.83;;
45388;SDS011;31127;52.078;4.370;2022-09-03T21:19:02;8.43;;;4.10;;
45388;SDS011;31127;52.078;4.370;2022-09-03T21:24:07;7.93;;;3.88;;
45388;SDS011;31127;52.078;4.370;2022-09-03T21:29:18;7.55;;;3.55;;
45388;SDS011;31127;52.078;4.370;2022-09-03T21:34:29;5.50;;;3.78;;
45388;SDS011;31127;52.078;4.370;2022-09-03T21:39:32;7.28;;;4.10;;
45388;SDS011;31127;52.078;4.370;2022-09-03T21:50:18;9.45;;;4.80;;
45388;SDS011;31127;52.078;4.370;2022-09-03T22:00:50;6.45;;;4.30;;
45388;SDS011;31127;52.078;4.370;2022-09-03T22:06:14;8.20;;;4.38;;
45388;SDS011;31127;52.078;4.370;2022-09-03T22:11:20;11.00;;;4.27;;
45388;SDS011;31127;52.078;4.370;2022-09-03T22:16:26;7.38;;;4.60;;
45388;SDS011;31127;52.078;4.370;2022-09-03T22:21:33;6.95;;;4.47;;
45388;SDS011;31127;52.078;4.370;2022-09-03T22:26:42;8.10;;;4.50;;
45388;SDS011;31127;52.078;4.370;2022-09-03T22:31:54;6.70;;;4.82;;
45388;SDS011;31127;52.078;4.370;2022-09-03T22:52:10;9.83;;;4.80;;
45388;SDS011;31127;52.078;4.370;2022-09-03T22:57:28;8.57;;;5.18;;
45388;SDS011;31127;52.078;4.370;2022-09-03T23:02:33;10.40;;;5.60;;
45388;SDS011;31127;52.078;4.370;2022-09-03T23:07:46;9.63;;;5.33;;
45388;SDS011;31127;52.078;4.370;2022-09-03T23:12:51;9.85;;;5.38;;
45388;SDS011;31127;52.078;4.370;2022-09-03T23:18:14;8.90;;;6.38;;
45388;SDS011;31127;52.078;4.370;2022-09-03T23:28:28;9.05;;;6.38;;
45388;SDS011;31127;52.078;4.370;2022-09-03T23:33:32;10.43;;;7.88;;
45388;SDS011;31127;52.078;4.370;2022-09-03T23:38:39;19.23;;;11.80;;
45388;SDS011;31127;52.078;4.370;2022-09-03T23:44:00;18.77;;;10.75;;
45388;SDS011;31127;52.078;4.370;2022-09-03T23:49:07;13.20;;;9.73;;
45388;SDS011;31127;52.078;4.370;2022-09-03T23:54:24;10.60;;;8.45;;
45388;SDS011;31127;52.078;4.370;2022-09-03T23:59:37;11.32;;;8.05;;
